sensor_id;sensor_type;location;lat;lon;timestamp;temperature;humidity
47857;DHT22;33618;49.972;8.242;2022-10-16T00:01:43;14.60;99.90
47857;DHT22;33618;49.972;8.242;2022-10-16T00:04:10;14.70;99.90
47857;DHT22;33618;49.972;8.242;2022-10-16T00:06:37;14.60;99.90
47857;DHT22;33618;49.972;8.242;2022-10-16T00:09:05;14.60;99.90
47857;DHT22;33618;49.972;8.242;2022-10-16T00:11:34;14.60;99.90
47857;DHT22;33618;49.972;8.242;2022-10-16T00:14:05;14.60;99.90
47857;DHT22;33618;49.972;8.242;2022-10-16T00:16:34;14.50;99.90
47857;DHT22;33618;49.972;8.242;2022-10-16T00:19:01;14.60;99.90
47857;DHT22;33618;49.972;8.242;2022-10-16T00:21:30;14.60;99.90
47857;DHT22;33618;49.972;8.242;2022-10-16T01:17:09;14.70;99.90
47857;DHT22;33618;49.972;8.242;2022-10-16T01:19:53;14.60;99.90
47857;DHT22;33618;49.972;8.242;2022-10-16T01:22:25;14.60;99.90
47857;DHT22;33618;49.972;8.242;2022-10-16T01:24:57;14.50;99.90
47857;DHT22;33618;49.972;8.242;2022-10-16T01:27:31;14.50;99.90
47857;DHT22;33618;49.972;8.242;2022-10-16T01:30:07;14.60;99.90
47857;DHT22;33618;49.972;8.242;2022-10-16T01:32:55;14.50;99.90
47857;DHT22;33618;49.972;8.242;2022-10-16T01:35:30;14.50;99.90
47857;DHT22;33618;49.972;8.242;2022-10-16T01:40:31;14.60;99.90
47857;DHT22;33618;49.972;8.242;2022-10-16T01:43:19;14.50;99.90
47857;DHT22;33618;49.972;8.242;2022-10-16T01:45:48;14.50;99.90
47857;DHT22;33618;49.972;8.242;2022-10-16T01:48:18;14.50;99.90
47857;DHT22;33618;49.972;8.242;2022-10-16T01:50:56;14.50;99.90
47857;DHT22;33618;49.972;8.242;2022-10-16T01:53:25;14.60;99.90
47857;DHT22;33618;49.972;8.242;2022-10-16T01:55:54;14.60;99.90
47857;DHT22;33618;49.972;8.242;2022-10-16T01:58:23;14.60;99.90
47857;DHT22;33618;49.972;8.242;2022-10-16T02:00:52;14.60;99.90
47857;DHT22;33618;49.972;8.242;2022-10-16T02:03:22;14.60;99.90
47857;DHT22;33618;49.972;8.242;2022-10-16T02:05:52;14.60;99.90
47857;DHT22;33618;49.972;8.242;2022-10-16T02:08:22;14.60;99.90
47857;DHT22;33618;49.972;8.242;2022-10-16T02:10:50;14.70;99.90
47857;DHT22;33618;49.972;8.242;2022-10-16T02:16:04;14.60;99.90
47857;DHT22;33618;49.972;8.242;2022-10-16T02:18:32;14.70;99.90
47857;DHT22;33618;49.972;8.242;2022-10-16T02:24:02;14.70;99.90
47857;DHT22;33618;49.972;8.242;2022-10-16T02:26:45;14.70;99.90
47857;DHT22;33618;49.972;8.242;2022-10-16T02:29:17;14.80;99.90
47857;DHT22;33618;49.972;8.242;2022-10-16T02:31:49;14.80;99.90
47857;DHT22;33618;49.972;8.242;2022-10-16T02:34:19;14.70;99.90
47857;DHT22;33618;49.972;8.242;2022-10-16T02:36:49;14.70;99.90
47857;DHT22;33618;49.972;8.242;2022-10-16T02:39:17;14.70;99.90
47857;DHT22;33618;49.972;8.242;2022-10-16T02:41:45;14.70;99.90
47857;DHT22;33618;49.972;8.242;2022-10-16T02:44:12;14.70;99.90
47857;DHT22;33618;49.972;8.242;2022-10-16T02:46:39;14.70;99.90
47857;DHT22;33618;49.972;8.242;2022-10-16T02:49:06;14.70;99.90
47857;DHT22;33618;49.972;8.242;2022-10-16T02:51:33;14.70;99.90
47857;DHT22;33618;49.972;8.242;2022-10-16T02:54:01;14.60;99.90
47857;DHT22;33618;49.972;8.242;2022-10-16T02:56:28;14.60;99.90
47857;DHT22;33618;49.972;8.242;2022-10-16T02:58:57;14.50;99.90
47857;DHT22;33618;49.972;8.242;2022-10-16T03:01:24;14.60;99.90
47857;DHT22;33618;49.972;8.242;2022-10-16T03:03:51;14.60;99.90
47857;DHT22;33618;49.972;8.242;2022-10-16T03:06:18;14.70;99.90
47857;DHT22;33618;49.972;8.242;2022-10-16T03:08:45;14.70;99.90
47857;DHT22;33618;49.972;8.242;2022-10-16T03:11:12;14.70;99.90
47857;DHT22;33618;49.972;8.242;2022-10-16T03:13:39;14.70;99.90
47857;DHT22;33618;49.972;8.242;2022-10-16T03:16:06;14.70;99.90
47857;DHT22;33618;49.972;8.242;2022-10-16T03:18:34;14.70;99.90
47857;DHT22;33618;49.972;8.242;2022-10-16T03:21:01;14.70;99.90
47857;DHT22;33618;49.972;8.242;2022-10-16T03:23:29;14.80;99.90
47857;DHT22;33618;49.972;8.242;2022-10-16T03:26:01;14.70;99.90
47857;DHT22;33618;49.972;8.242;2022-10-16T03:28:29;14.70;99.90
47857;DHT22;33618;49.972;8.242;2022-10-16T03:30:56;14.70;99.90
47857;DHT22;33618;49.972;8.242;2022-10-16T03:33:24;14.80;99.90
47857;DHT22;33618;49.972;8.242;2022-10-16T03:35:54;14.70;99.90
47857;DHT22;33618;49.972;8.242;2022-10-16T03:38:22;14.80;99.90
47857;DHT22;33618;49.972;8.242;2022-10-16T03:40:49;14.80;99.90
47857;DHT22;33618;49.972;8.242;2022-10-16T03:43:16;14.80;99.90
47857;DHT22;33618;49.972;8.242;2022-10-16T03:45:44;14.80;99.90
47857;DHT22;33618;49.972;8.242;2022-10-16T03:48:11;14.80;99.90
47857;DHT22;33618;49.972;8.242;2022-10-16T03:50:38;14.80;99.90
47857;DHT22;33618;49.972;8.242;2022-10-16T03:53:05;14.80;99.90
47857;DHT22;33618;49.972;8.242;2022-10-16T03:55:32;14.80;99.90
47857;DHT22;33618;49.972;8.242;2022-10-16T03:57:59;14.70;99.90
47857;DHT22;33618;49.972;8.242;2022-10-16T04:00:26;14.70;99.90
47857;DHT22;33618;49.972;8.242;2022-10-16T04:02:53;14.70;99.90
47857;DHT22;33618;49.972;8.242;2022-10-16T04:05:21;14.70;99.90
47857;DHT22;33618;49.972;8.242;2022-10-16T04:07:48;14.70;99.90
47857;DHT22;33618;49.972;8.242;2022-10-16T04:10:15;14.70;99.90
47857;DHT22;33618;49.972;8.242;2022-10-16T04:12:42;14.70;99.90
47857;DHT22;33618;49.972;8.242;2022-10-16T04:15:10;14.70;99.90
47857;DHT22;33618;49.972;8.242;2022-10-16T04:17:37;14.70;99.90
47857;DHT22;33618;49.972;8.242;2022-10-16T04:20:04;14.70;99.90
47857;DHT22;33618;49.972;8.242;2022-10-16T04:22:31;14.70;99.90
47857;DHT22;33618;49.972;8.242;2022-10-16T04:24:58;14.70;99.90
47857;DHT22;33618;49.972;8.242;2022-10-16T04:27:26;14.60;99.90
47857;DHT22;33618;49.972;8.242;2022-10-16T04:29:54;14.60;99.90
47857;DHT22;33618;49.972;8.242;2022-10-16T04:32:21;14.60;99.90
47857;DHT22;33618;49.972;8.242;2022-10-16T04:34:48;14.60;99.90
47857;DHT22;33618;49.972;8.242;2022-10-16T04:37:15;14.60;99.90
47857;DHT22;33618;49.972;8.242;2022-10-16T04:39:42;14.60;99.90
47857;DHT22;33618;49.972;8.242;2022-10-16T04:42:09;14.70;99.90
47857;DHT22;33618;49.972;8.242;2022-10-16T04:44:36;14.70;99.90
47857;DHT22;33618;49.972;8.242;2022-10-16T04:47:03;14.60;99.90
47857;DHT22;33618;49.972;8.242;2022-10-16T04:49:31;14.70;99.90
47857;DHT22;33618;49.972;8.242;2022-10-16T04:51:58;14.70;99.90
47857;DHT22;33618;49.972;8.242;2022-10-16T04:54:25;14.70;99.90
47857;DHT22;33618;49.972;8.242;2022-10-16T04:56:52;14.80;99.90
47857;DHT22;33618;49.972;8.242;2022-10-16T04:59:20;14.80;99.90
47857;DHT22;33618;49.972;8.242;2022-10-16T05:01:47;14.70;99.90
47857;DHT22;33618;49.972;8.242;2022-10-16T05:04:14;14.80;99.90
47857;DHT22;33618;49.972;8.242;2022-10-16T05:06:42;14.80;99.90
47857;DHT22;33618;49.972;8.242;2022-10-16T05:09:10;14.80;99.90
47857;DHT22;33618;49.972;8.242;2022-10-16T05:11:37;14.80;99.90
47857;DHT22;33618;49.972;8.242;2022-10-16T05:14:04;14.80;99.90
47857;DHT22;33618;49.972;8.242;2022-10-16T05:16:31;14.70;99.90
47857;DHT22;33618;49.972;8.242;2022-10-16T05:18:58;14.70;99.90
47857;DHT22;33618;49.972;8.242;2022-10-16T05:21:45;14.70;99.90
47857;DHT22;33618;49.972;8.242;2022-10-16T05:24:12;14.70;99.90
47857;DHT22;33618;49.972;8.242;2022-10-16T05:26:39;14.70;99.90
47857;DHT22;33618;49.972;8.242;2022-10-16T05:29:06;14.60;99.90
47857;DHT22;33618;49.972;8.242;2022-10-16T05:31:33;14.60;99.90
47857;DHT22;33618;49.972;8.242;2022-10-16T05:34:01;14.60;99.90
47857;DHT22;33618;49.972;8.242;2022-10-16T05:36:28;14.60;99.90
47857;DHT22;33618;49.972;8.242;2022-10-16T05:38:55;14.60;99.90
47857;DHT22;33618;49.972;8.242;2022-10-16T05:41:22;14.60;99.90
47857;DHT22;33618;49.972;8.242;2022-10-16T05:43:52;14.60;99.90
47857;DHT22;33618;49.972;8.242;2022-10-16T05:46:20;14.70;99.90
47857;DHT22;33618;49.972;8.242;2022-10-16T05:48:46;14.80;99.90
47857;DHT22;33618;49.972;8.242;2022-10-16T05:51:14;14.70;99.90
47857;DHT22;33618;49.972;8.242;2022-10-16T05:53:42;14.70;99.90
47857;DHT22;33618;49.972;8.242;2022-10-16T05:56:11;14.70;99.90
47857;DHT22;33618;49.972;8.242;2022-10-16T05:58:39;14.70;99.90
47857;DHT22;33618;49.972;8.242;2022-10-16T06:01:16;14.80;99.90
47857;DHT22;33618;49.972;8.242;2022-10-16T06:03:44;14.70;99.90
47857;DHT22;33618;49.972;8.242;2022-10-16T06:09:43;14.70;99.90
47857;DHT22;33618;49.972;8.242;2022-10-16T06:12:10;14.70;99.90
47857;DHT22;33618;49.972;8.242;2022-10-16T06:14:37;14.70;99.90
47857;DHT22;33618;49.972;8.242;2022-10-16T06:17:04;14.70;99.90
47857;DHT22;33618;49.972;8.242;2022-10-16T06:19:32;14.70;99.90
47857;DHT22;33618;49.972;8.242;2022-10-16T06:21:59;14.80;99.90
47857;DHT22;33618;49.972;8.242;2022-10-16T06:24:26;14.80;99.90
47857;DHT22;33618;49.972;8.242;2022-10-16T06:26:53;14.80;99.90
47857;DHT22;33618;49.972;8.242;2022-10-16T06:29:45;14.80;99.90
47857;DHT22;33618;49.972;8.242;2022-10-16T06:32:12;14.80;99.90
47857;DHT22;33618;49.972;8.242;2022-10-16T06:34:39;14.80;99.90
47857;DHT22;33618;49.972;8.242;2022-10-16T06:37:09;14.80;99.90
47857;DHT22;33618;49.972;8.242;2022-10-16T06:39:37;14.80;99.90
47857;DHT22;33618;49.972;8.242;2022-10-16T06:42:04;14.80;99.90
47857;DHT22;33618;49.972;8.242;2022-10-16T06:44:30;14.90;99.90
47857;DHT22;33618;49.972;8.242;2022-10-16T06:46:57;14.90;99.90
47857;DHT22;33618;49.972;8.242;2022-10-16T06:49:24;15.00;99.90
47857;DHT22;33618;49.972;8.242;2022-10-16T06:51:51;15.00;99.90
47857;DHT22;33618;49.972;8.242;2022-10-16T06:54:18;15.00;99.90
47857;DHT22;33618;49.972;8.242;2022-10-16T06:56:45;15.00;99.90
47857;DHT22;33618;49.972;8.242;2022-10-16T06:59:11;15.00;99.90
47857;DHT22;33618;49.972;8.242;2022-10-16T07:01:38;15.00;99.90
47857;DHT22;33618;49.972;8.242;2022-10-16T07:04:05;15.00;99.90
47857;DHT22;33618;49.972;8.242;2022-10-16T07:06:33;15.10;99.90
47857;DHT22;33618;49.972;8.242;2022-10-16T07:09:05;15.10;99.90
47857;DHT22;33618;49.972;8.242;2022-10-16T07:11:32;15.10;99.90
47857;DHT22;33618;49.972;8.242;2022-10-16T07:14:00;15.00;99.90
47857;DHT22;33618;49.972;8.242;2022-10-16T07:16:29;15.00;99.90
47857;DHT22;33618;49.972;8.242;2022-10-16T07:18:59;15.00;99.90
47857;DHT22;33618;49.972;8.242;2022-10-16T07:21:32;15.10;99.90
47857;DHT22;33618;49.972;8.242;2022-10-16T07:24:04;15.10;99.90
47857;DHT22;33618;49.972;8.242;2022-10-16T07:26:34;15.20;99.90
47857;DHT22;33618;49.972;8.242;2022-10-16T07:29:02;15.30;99.90
47857;DHT22;33618;49.972;8.242;2022-10-16T07:31:30;15.40;99.90
47857;DHT22;33618;49.972;8.242;2022-10-16T07:33:59;15.40;99.90
47857;DHT22;33618;49.972;8.242;2022-10-16T07:36:26;15.50;99.90
47857;DHT22;33618;49.972;8.242;2022-10-16T07:38:54;15.60;99.90
47857;DHT22;33618;49.972;8.242;2022-10-16T07:41:27;15.70;99.90
47857;DHT22;33618;49.972;8.242;2022-10-16T07:43:55;15.70;99.90
47857;DHT22;33618;49.972;8.242;2022-10-16T07:46:23;15.70;99.90
47857;DHT22;33618;49.972;8.242;2022-10-16T07:48:50;15.70;99.90
47857;DHT22;33618;49.972;8.242;2022-10-16T07:51:19;15.80;99.90
47857;DHT22;33618;49.972;8.242;2022-10-16T07:53:48;15.80;99.90
47857;DHT22;33618;49.972;8.242;2022-10-16T07:56:16;15.80;99.90
47857;DHT22;33618;49.972;8.242;2022-10-16T07:58:43;15.90;99.90
47857;DHT22;33618;49.972;8.242;2022-10-16T08:01:15;16.00;99.90
47857;DHT22;33618;49.972;8.242;2022-10-16T08:03:48;16.10;99.90
47857;DHT22;33618;49.972;8.242;2022-10-16T08:06:16;16.10;99.90
47857;DHT22;33618;49.972;8.242;2022-10-16T08:08:47;16.10;99.90
47857;DHT22;33618;49.972;8.242;2022-10-16T08:11:14;16.10;99.90
47857;DHT22;33618;49.972;8.242;2022-10-16T08:13:42;16.10;99.90
47857;DHT22;33618;49.972;8.242;2022-10-16T08:16:09;16.10;99.90
47857;DHT22;33618;49.972;8.242;2022-10-16T08:18:38;16.10;99.90
47857;DHT22;33618;49.972;8.242;2022-10-16T08:21:13;16.10;99.90
47857;DHT22;33618;49.972;8.242;2022-10-16T08:23:47;16.10;99.90
47857;DHT22;33618;49.972;8.242;2022-10-16T08:26:26;16.10;99.90
47857;DHT22;33618;49.972;8.242;2022-10-16T08:28:54;16.20;99.90
47857;DHT22;33618;49.972;8.242;2022-10-16T08:31:23;16.20;99.90
47857;DHT22;33618;49.972;8.242;2022-10-16T08:33:50;16.20;99.90
47857;DHT22;33618;49.972;8.242;2022-10-16T08:36:19;16.40;99.90
47857;DHT22;33618;49.972;8.242;2022-10-16T08:38:49;16.50;99.90
47857;DHT22;33618;49.972;8.242;2022-10-16T08:49:21;16.60;99.90
47857;DHT22;33618;49.972;8.242;2022-10-16T08:51:47;16.60;99.90
47857;DHT22;33618;49.972;8.242;2022-10-16T08:54:31;16.50;99.90
47857;DHT22;33618;49.972;8.242;2022-10-16T08:57:12;16.40;99.90
47857;DHT22;33618;49.972;8.242;2022-10-16T08:59:45;16.30;99.90
47857;DHT22;33618;49.972;8.242;2022-10-16T09:02:37;16.30;99.90
47857;DHT22;33618;49.972;8.242;2022-10-16T09:08:21;16.20;99.90
47857;DHT22;33618;49.972;8.242;2022-10-16T09:13:48;16.00;99.90
47857;DHT22;33618;49.972;8.242;2022-10-16T09:16:24;15.90;99.90
47857;DHT22;33618;49.972;8.242;2022-10-16T09:19:41;15.80;99.90
47857;DHT22;33618;49.972;8.242;2022-10-16T09:25:14;15.90;99.90
47857;DHT22;33618;49.972;8.242;2022-10-16T09:27:47;16.10;99.90
47857;DHT22;33618;49.972;8.242;2022-10-16T09:30:21;16.20;99.90
47857;DHT22;33618;49.972;8.242;2022-10-16T09:33:02;16.30;99.90
47857;DHT22;33618;49.972;8.242;2022-10-16T09:35:41;16.40;99.90
47857;DHT22;33618;49.972;8.242;2022-10-16T09:38:20;16.40;99.90
47857;DHT22;33618;49.972;8.242;2022-10-16T09:41:19;16.30;99.90
47857;DHT22;33618;49.972;8.242;2022-10-16T09:43:57;16.30;99.90
47857;DHT22;33618;49.972;8.242;2022-10-16T09:46:45;16.20;99.90
47857;DHT22;33618;49.972;8.242;2022-10-16T09:49:23;16.30;99.90
47857;DHT22;33618;49.972;8.242;2022-10-16T09:52:02;16.30;99.90
47857;DHT22;33618;49.972;8.242;2022-10-16T09:54:29;16.40;99.90
47857;DHT22;33618;49.972;8.242;2022-10-16T09:57:07;16.50;99.90
47857;DHT22;33618;49.972;8.242;2022-10-16T09:59:49;16.70;99.90
47857;DHT22;33618;49.972;8.242;2022-10-16T10:02:27;16.70;99.90
47857;DHT22;33618;49.972;8.242;2022-10-16T10:04:56;16.90;99.90
47857;DHT22;33618;49.972;8.242;2022-10-16T10:07:26;17.00;99.90
47857;DHT22;33618;49.972;8.242;2022-10-16T10:10:20;16.80;99.90
47857;DHT22;33618;49.972;8.242;2022-10-16T10:12:48;16.90;99.90
47857;DHT22;33618;49.972;8.242;2022-10-16T10:15:15;17.00;99.90
47857;DHT22;33618;49.972;8.242;2022-10-16T10:18:02;17.10;99.90
47857;DHT22;33618;49.972;8.242;2022-10-16T10:20:42;17.10;99.90
47857;DHT22;33618;49.972;8.242;2022-10-16T10:23:24;17.20;99.90
47857;DHT22;33618;49.972;8.242;2022-10-16T10:26:11;17.10;99.90
47857;DHT22;33618;49.972;8.242;2022-10-16T10:34:41;17.40;99.90
47857;DHT22;33618;49.972;8.242;2022-10-16T10:45:48;18.20;99.90
47857;DHT22;33618;49.972;8.242;2022-10-16T10:51:14;18.40;99.90
47857;DHT22;33618;49.972;8.242;2022-10-16T11:02:01;19.80;99.90
47857;DHT22;33618;49.972;8.242;2022-10-16T11:07:32;20.50;99.90
47857;DHT22;33618;49.972;8.242;2022-10-16T11:10:23;20.50;99.90
47857;DHT22;33618;49.972;8.242;2022-10-16T11:21:46;19.70;99.90
47857;DHT22;33618;49.972;8.242;2022-10-16T11:27:45;19.50;99.90
47857;DHT22;33618;49.972;8.242;2022-10-16T11:30:26;19.40;99.90
47857;DHT22;33618;49.972;8.242;2022-10-16T11:36:00;19.60;99.90
47857;DHT22;33618;49.972;8.242;2022-10-16T11:38:50;19.90;99.90
47857;DHT22;33618;49.972;8.242;2022-10-16T11:46:38;20.20;99.90
47857;DHT22;33618;49.972;8.242;2022-10-16T11:49:28;20.50;99.90
47857;DHT22;33618;49.972;8.242;2022-10-16T11:54:53;20.60;99.90
47857;DHT22;33618;49.972;8.242;2022-10-16T11:57:24;20.50;99.90
47857;DHT22;33618;49.972;8.242;2022-10-16T12:00:04;20.60;99.90
47857;DHT22;33618;49.972;8.242;2022-10-16T12:08:18;21.20;99.90
47857;DHT22;33618;49.972;8.242;2022-10-16T12:10:47;21.70;99.90
47857;DHT22;33618;49.972;8.242;2022-10-16T12:13:37;21.60;99.90
47857;DHT22;33618;49.972;8.242;2022-10-16T12:16:21;21.30;99.90
47857;DHT22;33618;49.972;8.242;2022-10-16T12:18:48;20.90;99.90
47857;DHT22;33618;49.972;8.242;2022-10-16T12:21:17;20.80;99.90
47857;DHT22;33618;49.972;8.242;2022-10-16T12:23:54;20.80;99.90
47857;DHT22;33618;49.972;8.242;2022-10-16T12:26:29;20.70;99.90
47857;DHT22;33618;49.972;8.242;2022-10-16T12:40:30;20.90;99.90
47857;DHT22;33618;49.972;8.242;2022-10-16T12:43:10;20.80;99.90
47857;DHT22;33618;49.972;8.242;2022-10-16T12:45:37;20.80;99.90
47857;DHT22;33618;49.972;8.242;2022-10-16T12:48:19;20.90;99.90
47857;DHT22;33618;49.972;8.242;2022-10-16T12:50:47;20.90;99.90
47857;DHT22;33618;49.972;8.242;2022-10-16T12:53:21;21.00;99.90
47857;DHT22;33618;49.972;8.242;2022-10-16T12:56:22;21.10;99.90
47857;DHT22;33618;49.972;8.242;2022-10-16T13:01:54;21.10;99.90
47857;DHT22;33618;49.972;8.242;2022-10-16T13:10:25;21.00;99.90
47857;DHT22;33618;49.972;8.242;2022-10-16T13:22:13;21.10;99.90
47857;DHT22;33618;49.972;8.242;2022-10-16T13:27:59;20.80;99.90
47857;DHT22;33618;49.972;8.242;2022-10-16T13:30:29;20.80;99.90
47857;DHT22;33618;49.972;8.242;2022-10-16T13:33:32;20.70;99.90
47857;DHT22;33618;49.972;8.242;2022-10-16T13:36:00;20.80;99.90
47857;DHT22;33618;49.972;8.242;2022-10-16T13:38:35;20.80;99.90
47857;DHT22;33618;49.972;8.242;2022-10-16T13:41:17;20.80;99.90
47857;DHT22;33618;49.972;8.242;2022-10-16T13:43:52;20.80;99.90
47857;DHT22;33618;49.972;8.242;2022-10-16T13:46:22;20.70;99.90
47857;DHT22;33618;49.972;8.242;2022-10-16T13:49:04;20.60;99.90
47857;DHT22;33618;49.972;8.242;2022-10-16T13:51:32;20.60;99.90
47857;DHT22;33618;49.972;8.242;2022-10-16T13:53:59;20.50;99.90
47857;DHT22;33618;49.972;8.242;2022-10-16T13:56:28;20.50;99.90
47857;DHT22;33618;49.972;8.242;2022-10-16T13:59:27;20.50;99.90
47857;DHT22;33618;49.972;8.242;2022-10-16T14:01:59;20.50;99.90
47857;DHT22;33618;49.972;8.242;2022-10-16T14:04:31;20.50;99.90
47857;DHT22;33618;49.972;8.242;2022-10-16T14:06:58;20.30;99.90
47857;DHT22;33618;49.972;8.242;2022-10-16T14:09:27;20.30;99.90
47857;DHT22;33618;49.972;8.242;2022-10-16T14:12:01;20.30;99.90
47857;DHT22;33618;49.972;8.242;2022-10-16T14:14:35;20.40;99.90
47857;DHT22;33618;49.972;8.242;2022-10-16T14:17:06;20.50;99.90
47857;DHT22;33618;49.972;8.242;2022-10-16T14:19:39;20.60;99.90
47857;DHT22;33618;49.972;8.242;2022-10-16T14:25:23;20.60;99.90
47857;DHT22;33618;49.972;8.242;2022-10-16T14:30:35;20.40;99.90
47857;DHT22;33618;49.972;8.242;2022-10-16T14:33:05;20.50;99.90
47857;DHT22;33618;49.972;8.242;2022-10-16T14:35:37;20.50;99.90
47857;DHT22;33618;49.972;8.242;2022-10-16T14:38:06;20.40;99.90
47857;DHT22;33618;49.972;8.242;2022-10-16T14:40:36;20.30;99.90
47857;DHT22;33618;49.972;8.242;2022-10-16T14:43:04;20.30;99.90
47857;DHT22;33618;49.972;8.242;2022-10-16T14:45:34;20.30;99.90
47857;DHT22;33618;49.972;8.242;2022-10-16T14:48:06;20.30;99.90
47857;DHT22;33618;49.972;8.242;2022-10-16T14:50:45;20.30;99.90
47857;DHT22;33618;49.972;8.242;2022-10-16T14:53:12;20.30;99.90
47857;DHT22;33618;49.972;8.242;2022-10-16T14:55:40;20.20;99.90
47857;DHT22;33618;49.972;8.242;2022-10-16T14:58:22;20.10;99.90
47857;DHT22;33618;49.972;8.242;2022-10-16T15:00:50;20.10;99.90
47857;DHT22;33618;49.972;8.242;2022-10-16T15:03:17;20.10;99.90
47857;DHT22;33618;49.972;8.242;2022-10-16T15:05:44;20.10;99.90
47857;DHT22;33618;49.972;8.242;2022-10-16T15:08:10;20.10;99.90
47857;DHT22;33618;49.972;8.242;2022-10-16T15:10:42;20.00;99.90
47857;DHT22;33618;49.972;8.242;2022-10-16T15:13:12;20.00;99.90
47857;DHT22;33618;49.972;8.242;2022-10-16T15:15:48;19.90;99.90
47857;DHT22;33618;49.972;8.242;2022-10-16T15:18:15;19.90;99.90
47857;DHT22;33618;49.972;8.242;2022-10-16T15:20:49;19.90;99.90
47857;DHT22;33618;49.972;8.242;2022-10-16T15:23:19;19.90;99.90
47857;DHT22;33618;49.972;8.242;2022-10-16T15:25:47;20.00;99.90
47857;DHT22;33618;49.972;8.242;2022-10-16T15:28:15;20.00;99.90
47857;DHT22;33618;49.972;8.242;2022-10-16T15:30:43;19.90;99.90
47857;DHT22;33618;49.972;8.242;2022-10-16T15:33:14;19.90;99.90
47857;DHT22;33618;49.972;8.242;2022-10-16T15:35:41;19.90;99.90
47857;DHT22;33618;49.972;8.242;2022-10-16T15:38:11;19.80;99.90
47857;DHT22;33618;49.972;8.242;2022-10-16T15:40:40;19.80;99.90
47857;DHT22;33618;49.972;8.242;2022-10-16T15:43:07;19.80;99.90
47857;DHT22;33618;49.972;8.242;2022-10-16T15:45:35;19.70;99.90
47857;DHT22;33618;49.972;8.242;2022-10-16T15:48:02;19.80;99.90
47857;DHT22;33618;49.972;8.242;2022-10-16T15:50:30;19.70;99.90
47857;DHT22;33618;49.972;8.242;2022-10-16T15:52:58;19.70;99.90
47857;DHT22;33618;49.972;8.242;2022-10-16T15:55:25;19.70;99.90
47857;DHT22;33618;49.972;8.242;2022-10-16T15:57:52;19.70;99.90
47857;DHT22;33618;49.972;8.242;2022-10-16T16:00:19;19.70;99.90
47857;DHT22;33618;49.972;8.242;2022-10-16T16:02:52;19.60;99.90
47857;DHT22;33618;49.972;8.242;2022-10-16T16:05:21;19.60;99.90
47857;DHT22;33618;49.972;8.242;2022-10-16T16:07:48;19.60;99.90
47857;DHT22;33618;49.972;8.242;2022-10-16T16:10:16;19.60;99.90
47857;DHT22;33618;49.972;8.242;2022-10-16T16:12:43;19.50;99.90
47857;DHT22;33618;49.972;8.242;2022-10-16T16:15:15;19.40;99.90
47857;DHT22;33618;49.972;8.242;2022-10-16T16:17:43;19.40;99.90
47857;DHT22;33618;49.972;8.242;2022-10-16T16:20:11;19.30;99.90
47857;DHT22;33618;49.972;8.242;2022-10-16T16:22:38;19.20;99.90
47857;DHT22;33618;49.972;8.242;2022-10-16T16:25:05;19.10;99.90
47857;DHT22;33618;49.972;8.242;2022-10-16T16:27:32;19.00;99.90
47857;DHT22;33618;49.972;8.242;2022-10-16T16:30:06;18.90;99.90
47857;DHT22;33618;49.972;8.242;2022-10-16T16:32:34;18.90;99.90
47857;DHT22;33618;49.972;8.242;2022-10-16T16:35:02;18.90;99.90
47857;DHT22;33618;49.972;8.242;2022-10-16T16:37:29;18.80;99.90
47857;DHT22;33618;49.972;8.242;2022-10-16T16:39:57;18.80;99.90
47857;DHT22;33618;49.972;8.242;2022-10-16T16:42:27;18.70;99.90
47857;DHT22;33618;49.972;8.242;2022-10-16T16:44:54;18.60;99.90
47857;DHT22;33618;49.972;8.242;2022-10-16T16:47:21;18.60;99.90
47857;DHT22;33618;49.972;8.242;2022-10-16T16:49:49;18.60;99.90
47857;DHT22;33618;49.972;8.242;2022-10-16T16:52:16;18.60;99.90
47857;DHT22;33618;49.972;8.242;2022-10-16T16:54:43;18.50;99.90
47857;DHT22;33618;49.972;8.242;2022-10-16T16:57:11;18.40;99.90
47857;DHT22;33618;49.972;8.242;2022-10-16T16:59:38;18.40;99.90
47857;DHT22;33618;49.972;8.242;2022-10-16T17:02:05;18.40;99.90
47857;DHT22;33618;49.972;8.242;2022-10-16T17:04:32;18.40;99.90
47857;DHT22;33618;49.972;8.242;2022-10-16T17:06:59;18.30;99.90
47857;DHT22;33618;49.972;8.242;2022-10-16T17:09:27;18.30;99.90
47857;DHT22;33618;49.972;8.242;2022-10-16T17:11:54;18.20;99.90
47857;DHT22;33618;49.972;8.242;2022-10-16T17:14:21;18.20;99.90
47857;DHT22;33618;49.972;8.242;2022-10-16T17:16:48;18.10;99.90
47857;DHT22;33618;49.972;8.242;2022-10-16T17:19:18;18.20;99.90
47857;DHT22;33618;49.972;8.242;2022-10-16T17:21:48;18.10;99.90
47857;DHT22;33618;49.972;8.242;2022-10-16T17:24:16;18.00;99.90
47857;DHT22;33618;49.972;8.242;2022-10-16T17:26:44;17.90;99.90
47857;DHT22;33618;49.972;8.242;2022-10-16T17:29:15;17.80;99.90
47857;DHT22;33618;49.972;8.242;2022-10-16T17:31:44;17.70;99.90
47857;DHT22;33618;49.972;8.242;2022-10-16T17:34:12;17.60;99.90
47857;DHT22;33618;49.972;8.242;2022-10-16T17:36:40;17.60;99.90
47857;DHT22;33618;49.972;8.242;2022-10-16T17:39:11;17.50;99.90
47857;DHT22;33618;49.972;8.242;2022-10-16T17:41:39;17.50;99.90
47857;DHT22;33618;49.972;8.242;2022-10-16T17:44:06;17.50;99.90
47857;DHT22;33618;49.972;8.242;2022-10-16T17:46:34;17.40;99.90
47857;DHT22;33618;49.972;8.242;2022-10-16T17:49:06;17.30;99.90
47857;DHT22;33618;49.972;8.242;2022-10-16T17:51:33;17.20;99.90
47857;DHT22;33618;49.972;8.242;2022-10-16T17:54:01;17.20;99.90
47857;DHT22;33618;49.972;8.242;2022-10-16T17:56:29;17.10;99.90
47857;DHT22;33618;49.972;8.242;2022-10-16T17:58:58;17.10;99.90
47857;DHT22;33618;49.972;8.242;2022-10-16T18:01:34;17.00;99.90
47857;DHT22;33618;49.972;8.242;2022-10-16T18:04:05;17.00;99.90
47857;DHT22;33618;49.972;8.242;2022-10-16T18:06:33;16.90;99.90
47857;DHT22;33618;49.972;8.242;2022-10-16T18:09:00;16.90;99.90
47857;DHT22;33618;49.972;8.242;2022-10-16T18:11:28;16.80;99.90
47857;DHT22;33618;49.972;8.242;2022-10-16T18:13:57;16.80;99.90
47857;DHT22;33618;49.972;8.242;2022-10-16T18:16:27;16.70;99.90
47857;DHT22;33618;49.972;8.242;2022-10-16T18:18:54;16.70;99.90
47857;DHT22;33618;49.972;8.242;2022-10-16T18:21:23;16.60;99.90
47857;DHT22;33618;49.972;8.242;2022-10-16T18:23:53;16.60;99.90
47857;DHT22;33618;49.972;8.242;2022-10-16T18:26:21;16.50;99.90
47857;DHT22;33618;49.972;8.242;2022-10-16T18:28:51;16.50;99.90
47857;DHT22;33618;49.972;8.242;2022-10-16T18:31:19;16.40;99.90
47857;DHT22;33618;49.972;8.242;2022-10-16T18:33:46;16.40;99.90
47857;DHT22;33618;49.972;8.242;2022-10-16T18:36:18;16.30;99.90
47857;DHT22;33618;49.972;8.242;2022-10-16T18:38:45;16.30;99.90
47857;DHT22;33618;49.972;8.242;2022-10-16T18:41:12;16.30;99.90
47857;DHT22;33618;49.972;8.242;2022-10-16T18:43:39;16.30;99.90
47857;DHT22;33618;49.972;8.242;2022-10-16T18:46:15;16.20;99.90
47857;DHT22;33618;49.972;8.242;2022-10-16T18:48:43;16.20;99.90
47857;DHT22;33618;49.972;8.242;2022-10-16T18:51:17;16.20;99.90